Darstellungsparameter: Aktuell verwendete Einstellungen:
Skalierung der Graphiken ... ?
xyx+y,   Skalierungsfaktor:      Skalierung: Modus: x, Faktor: 1
Darstellungszeitraum ... ?
Vom - - bis: - -   Zeitraum: 13.04.2011 - 13.04.2011
Min/Max/Avg-Anzeige ... ?
Zeige MMA aktuell
Zeige MMA Monat
Zeige MMA alles
Zeige --A aktuell
Zeige --A Monat
Zeige --A alles
Keine MMA-Anzeige
MMA:
Average (ber die Originaldaten)
MMA-Basis: 13.04.2011 - 13.04.2011
Quicknavigation für Darstellung... ?
Tage:      1T, 2T, 3T, 5T -1T -2T -3T -5T +1T +2T +3T +5T
Wochen: 1W, 2W, 3W -1W -2W -3W +1W +2W +3W
Monate: 1M, 3M, 6M -1M -3M -6M +1M +3M +6M
Jahre:    1J, 3J, 5J, 10J -1J -3J -5J -10J +1J +3J +5J +10J
Nutze für die Darstellung ... ?
Originaldaten oder Mittelwerte auf ...
Stundenbasis Tagesbasis Wochenbasis
Monatsbasis Jahresbasis      Datenbasis: Original-Daten
Darstellen als:
Statistik (Auto) Statistik J:M      Darstellung:
Zur Graphik,    zurück zur Übersicht aller Sensoren.
 
Tabellarische Datenbersicht: ?
 
Sensor: Nr:Datum:Temp:Abs-Feuchte:Windchill:Wind:
Aussen-T/F 1 13-04-2011 00:06:04 5 C 4.28 g/m*3 5 C 0 km/h
2 13-04-2011 00:18:04 4.7 C 4.33 g/m*3 4.7 C 0 km/h
3 13-04-2011 00:30:04 4.6 C 4.57 g/m*3 4.6 C 0 km/h
4 13-04-2011 00:42:04 4.5 C 4.47 g/m*3 4.5 C 0 km/h
5 13-04-2011 00:54:04 4.2 C 4.57 g/m*3 4.2 C 0 km/h
6 13-04-2011 01:06:04 4.6 C 4.7 g/m*3 4.6 C 0 km/h
7 13-04-2011 01:18:04 4.8 C 4.56 g/m*3 4.8 C 0 km/h
8 13-04-2011 01:30:04 5.2 C 4.41 g/m*3 5.2 C 0 km/h
9 13-04-2011 01:42:04 4.6 C 4.57 g/m*3 4.6 C 0 km/h
10 13-04-2011 01:54:04 4.1 C 4.48 g/m*3 4.1 C 0 km/h
11 13-04-2011 02:06:04 3.7 C 4.67 g/m*3 3.7 C 0 km/h
12 13-04-2011 02:18:04 3.4 C 4.7 g/m*3 3.4 C 0 km/h
13 13-04-2011 02:30:04 3.3 C 4.73 g/m*3 3.3 C 0 km/h
14 13-04-2011 02:42:05 3.1 C 4.73 g/m*3 3.1 C 0 km/h
15 13-04-2011 02:54:05 3.1 C 4.79 g/m*3 3.1 C 0 km/h
16 13-04-2011 03:06:05 2.9 C 4.78 g/m*3 2.9 C 0 km/h
17 13-04-2011 03:18:05 2.8 C 4.75 g/m*3 2.8 C 0 km/h
18 13-04-2011 03:30:05 2.4 C 4.68 g/m*3 2.4 C 0 km/h
19 13-04-2011 03:42:05 2.1 C 4.64 g/m*3 2.1 C 0 km/h
20 13-04-2011 03:54:05 2.2 C 4.73 g/m*3 2.2 C 0 km/h
21 13-04-2011 04:06:05 1.6 C 4.6 g/m*3 1.6 C 0 km/h
22 13-04-2011 04:18:05 1.8 C 4.71 g/m*3 1.8 C 0 km/h
23 13-04-2011 04:30:05 2 C 4.78 g/m*3 2 C 0 km/h
24 13-04-2011 04:42:05 1.6 C 4.7 g/m*3 1.6 C 0 km/h
25 13-04-2011 04:54:05 1.7 C 4.79 g/m*3 1.7 C 0 km/h
Sensor: Nr:Datum:Temp:Abs-Feuchte:Windchill:Wind:
Aussen-T/F 26 13-04-2011 05:06:05 1.8 C 4.82 g/m*3 1.8 C 0 km/h
27 13-04-2011 05:18:05 2 C 4.89 g/m*3 2 C 0 km/h
28 13-04-2011 05:30:05 1.7 C 4.79 g/m*3 1.7 C 0 km/h
29 13-04-2011 05:42:05 2.1 C 4.92 g/m*3 2.1 C 0 km/h
30 13-04-2011 05:54:05 1.9 C 4.86 g/m*3 1.9 C 0 km/h
31 13-04-2011 06:06:05 1.5 C 4.73 g/m*3 1.5 C 0 km/h
32 13-04-2011 06:18:05 1.4 C 4.69 g/m*3 1.4 C 0 km/h
33 13-04-2011 06:30:05 1.6 C 4.76 g/m*3 1.6 C 0 km/h
34 13-04-2011 06:42:05 2 C 4.89 g/m*3 2 C 0 km/h
35 13-04-2011 06:54:06 2.2 C 4.96 g/m*3 2.2 C 0 km/h
36 13-04-2011 07:06:03 2.4 C 5.02 g/m*3 2.4 C 0 km/h
37 13-04-2011 07:18:03 2.1 C 4.87 g/m*3 2.1 C 0 km/h
38 13-04-2011 07:30:03 1.9 C 4.8 g/m*3 1.9 C 0 km/h
39 13-04-2011 07:42:03 1.6 C 4.7 g/m*3 1.6 C 0 km/h
40 13-04-2011 07:54:02 2.3 C 4.93 g/m*3 2.3 C 0 km/h
41 13-04-2011 08:06:02 2.3 C 4.88 g/m*3 2.3 C 0 km/h
42 13-04-2011 08:18:02 2.3 C 4.88 g/m*3 2.3 C 0 km/h
43 13-04-2011 08:30:02 3.3 C 5.1 g/m*3 3.3 C 0 km/h
44 13-04-2011 08:42:02 2.9 C 4.9 g/m*3 2.9 C 0 km/h
45 13-04-2011 08:54:02 3.7 C 5.11 g/m*3 3.7 C 0 km/h
46 13-04-2011 09:06:02 4.6 C 5.1 g/m*3 4.6 C 0 km/h
47 13-04-2011 09:18:02 4.8 C 4.96 g/m*3 4.8 C 0 km/h
48 13-04-2011 09:30:02 6.1 C 4.82 g/m*3 6.1 C 0 km/h
49 13-04-2011 09:42:02 6.5 C 4.72 g/m*3 6.5 C 0 km/h
50 13-04-2011 09:54:02 7.3 C 4.42 g/m*3 7.3 C 0 km/h
Sensor: Nr:Datum:Temp:Abs-Feuchte:Windchill:Wind:
Aussen-T/F 51 13-04-2011 10:06:01 8.1 C 4.24 g/m*3 8.1 C 0 km/h
52 13-04-2011 10:18:02 8.3 C 4.05 g/m*3 8.3 C 0 km/h
53 13-04-2011 10:30:02 9 C 3.97 g/m*3 9 C 0 km/h
54 13-04-2011 10:42:01 9.2 C 3.84 g/m*3 9.2 C 0 km/h
55 13-04-2011 10:54:02 10.5 C 3.98 g/m*3 10.5 C 0 km/h
56 13-04-2011 11:06:01 10.1 C 3.78 g/m*3 10.1 C 0 km/h
57 13-04-2011 11:18:02 10.3 C 3.83 g/m*3 10.3 C 0 km/h
58 13-04-2011 11:30:02 9.9 C 3.83 g/m*3 9.9 C 0 km/h
59 13-04-2011 11:42:01 10.7 C 3.83 g/m*3 10.7 C 0 km/h
60 13-04-2011 11:54:01 10.4 C 3.47 g/m*3 10.4 C 0 km/h
61 13-04-2011 12:06:01 10.8 C 3.36 g/m*3 10.8 C 0 km/h
62 13-04-2011 12:18:01 11.2 C 3.55 g/m*3 11.2 C 0 km/h
63 13-04-2011 12:30:01 11.5 C 3.41 g/m*3 11.5 C 0 km/h
64 13-04-2011 12:42:01 11.1 C 3.22 g/m*3 11.1 C 0 km/h
65 13-04-2011 12:54:01 12 C 3.3 g/m*3 12 C 0 km/h
66 13-04-2011 13:06:01 12.5 C 3.3 g/m*3 12.5 C 0 km/h
67 13-04-2011 13:18:02 12.6 C 3.32 g/m*3 12.6 C 0 km/h
68 13-04-2011 13:30:02 13.2 C 3.1 g/m*3 13.2 C 0 km/h
69 13-04-2011 13:42:01 13.7 C 2.72 g/m*3 13.7 C 0 km/h
70 13-04-2011 13:54:02 14 C 2.89 g/m*3 14 C 0 km/h
71 13-04-2011 14:06:02 14.1 C 2.43 g/m*3 14.1 C 0 km/h
72 13-04-2011 14:18:03 13.6 C 2.35 g/m*3 13.6 C 0 km/h
73 13-04-2011 14:30:03 13.5 C 2.46 g/m*3 13.5 C 0 km/h
74 13-04-2011 14:42:02 13.4 C 2.67 g/m*3 13.4 C 0 km/h
75 13-04-2011 14:54:03 15.2 C 2.86 g/m*3 15.2 C 0 km/h
Sensor: Nr:Datum:Temp:Abs-Feuchte:Windchill:Wind:
Aussen-T/F 76 13-04-2011 15:06:02 15.9 C 2.71 g/m*3 15.9 C 0 km/h
77 13-04-2011 15:18:02 16 C 2.72 g/m*3 16 C 0 km/h
78 13-04-2011 15:30:02 16 C 2.72 g/m*3 16 C 0 km/h
79 13-04-2011 15:42:02 15 C 2.56 g/m*3 15 C 0 km/h
80 13-04-2011 15:54:02 13.3 C 2.89 g/m*3 13.3 C 0 km/h
81 13-04-2011 16:06:01 13.2 C 2.99 g/m*3 13.2 C 0 km/h
82 13-04-2011 16:18:02 14 C 2.65 g/m*3 14 C 0 km/h
83 13-04-2011 16:30:03 13.2 C 2.99 g/m*3 13.2 C 0 km/h
84 13-04-2011 16:42:01 13 C 3.18 g/m*3 13 C 0 km/h
85 13-04-2011 16:54:02 12.7 C 3.23 g/m*3 12.7 C 0 km/h
86 13-04-2011 17:06:01 14.4 C 3.09 g/m*3 14.4 C 0 km/h
87 13-04-2011 17:18:01 13.4 C 3.02 g/m*3 13.4 C 0 km/h
88 13-04-2011 17:30:01 12.8 C 3.02 g/m*3 12.8 C 0 km/h
89 13-04-2011 17:42:02 12.7 C 3.34 g/m*3 12.7 C 0 km/h
90 13-04-2011 17:54:02 12.9 C 3.38 g/m*3 12.9 C 0 km/h
91 13-04-2011 18:06:02 13.2 C 3.21 g/m*3 13.2 C 0 km/h
92 13-04-2011 18:18:02 12.2 C 3.24 g/m*3 12.2 C 0 km/h
93 13-04-2011 18:30:02 12.2 C 3.24 g/m*3 12.2 C 0 km/h
94 13-04-2011 18:42:02 13.7 C 3.08 g/m*3 13.7 C 0 km/h
95 13-04-2011 18:54:02 12.3 C 3.37 g/m*3 12.3 C 0 km/h
96 13-04-2011 19:06:01 11.9 C 3.49 g/m*3 11.9 C 0 km/h
97 13-04-2011 19:18:01 11.8 C 3.37 g/m*3 11.8 C 0 km/h
98 13-04-2011 19:30:01 10.8 C 4.05 g/m*3 10.8 C 0 km/h
99 13-04-2011 19:42:02 9.7 C 4.15 g/m*3 9.7 C 0 km/h
100 13-04-2011 19:54:02 9.1 C 4.26 g/m*3 9.1 C 0 km/h
Sensor: Nr:Datum:Temp:Abs-Feuchte:Windchill:Wind:
Aussen-T/F 101 13-04-2011 20:06:03 8.6 C 4.21 g/m*3 8.6 C 0 km/h
102 13-04-2011 20:18:02 8.1 C 4.16 g/m*3 8.1 C 0 km/h
103 13-04-2011 20:30:02 8.2 C 4.1 g/m*3 8.2 C 0 km/h
104 13-04-2011 20:42:02 8.4 C 3.73 g/m*3 8.4 C 0 km/h
105 13-04-2011 20:54:02 8.2 C 3.77 g/m*3 8.2 C 0 km/h
106 13-04-2011 21:06:02 8.1 C 3.74 g/m*3 8.1 C 0 km/h
107 13-04-2011 21:18:02 7.9 C 3.94 g/m*3 7.9 C 0 km/h
108 13-04-2011 21:30:02 7.9 C 3.86 g/m*3 7.9 C 0 km/h
109 13-04-2011 21:42:03 7.5 C 4.08 g/m*3 7.5 C 0 km/h
110 13-04-2011 21:54:02 7.4 C 4.21 g/m*3 7.4 C 0 km/h
111 13-04-2011 22:06:02 6.7 C 4.18 g/m*3 6.7 C 0 km/h
112 13-04-2011 22:18:01 6.4 C 4.25 g/m*3 6.4 C 0 km/h
113 13-04-2011 22:30:01 6.4 C 4.55 g/m*3 6.4 C 0 km/h
114 13-04-2011 22:42:02 6.7 C 4.71 g/m*3 6.7 C 0 km/h
115 13-04-2011 22:55:03 6.2 C 4.49 g/m*3 6.2 C 0 km/h
116 13-04-2011 23:07:03 6 C 4.5 g/m*3 6 C 0 km/h
117 13-04-2011 23:19:03 6 C 4.57 g/m*3 6 C 0 km/h
118 13-04-2011 23:31:03 5.7 C 4.7 g/m*3 5.7 C 0 km/h
119 13-04-2011 23:43:03 5.6 C 4.67 g/m*3 5.6 C 0 km/h
120 13-04-2011 23:55:03 5.5 C 4.57 g/m*3 5.5 C 0 km/h

Legende:
   Min
   Max


Maximal/Minimal-Werte vom 13.04.2011 - 13.04.2011

Sensor Min Max Avg
Temp
(Aussen-T/F)
1.4 °C
13-04-2011  06:18:05
16 °C
13-04-2011  15:18:02
7.6 °C
Abs-Feuchte
(Aussen-T/F)
2.35 g/m*3
13-04-2011  14:18:03
5.11 g/m*3
13-04-2011  08:54:02
4.02 g/m*3
Windchill
(Aussen-T/F)
1.4 C
13-04-2011  06:18:05
16 C
13-04-2011  15:18:02
7.54 C

Die Daten stammen von einer Davis Vantage Pro 2 Wetter-Station und werden unter Linux mit der Software wview2wettercgi und aufbereitet. Alle Angaben erfolgen ohne Gewähr für ihre Vollständigkeit oder Richtigkeit.
Kontakt: Rainer Krienke krienke@uni-koblenz.de . Meine Webseiten an der Uni Koblenz oder privat.
Version: $Revision: 0.78 $